sensor_id;sensor_type;location;lat;lon;timestamp;temperature;humidity
25138;DHT22;13112;50.986;4.354;2022-10-17T00:00:47;15.90;99.90
25138;DHT22;13112;50.986;4.354;2022-10-17T00:03:13;15.90;99.90
25138;DHT22;13112;50.986;4.354;2022-10-17T00:05:44;15.90;99.90
25138;DHT22;13112;50.986;4.354;2022-10-17T00:08:11;15.90;99.90
25138;DHT22;13112;50.986;4.354;2022-10-17T00:10:38;15.90;99.90
25138;DHT22;13112;50.986;4.354;2022-10-17T00:13:04;15.90;99.90
25138;DHT22;13112;50.986;4.354;2022-10-17T00:15:31;15.80;99.90
25138;DHT22;13112;50.986;4.354;2022-10-17T00:17:57;15.80;99.90
25138;DHT22;13112;50.986;4.354;2022-10-17T00:20:23;15.80;99.90
25138;DHT22;13112;50.986;4.354;2022-10-17T00:22:49;15.90;99.90
25138;DHT22;13112;50.986;4.354;2022-10-17T00:25:14;15.80;99.90
25138;DHT22;13112;50.986;4.354;2022-10-17T00:27:40;15.70;99.90
25138;DHT22;13112;50.986;4.354;2022-10-17T00:30:10;15.80;99.90
25138;DHT22;13112;50.986;4.354;2022-10-17T00:32:36;15.80;99.90
25138;DHT22;13112;50.986;4.354;2022-10-17T00:35:03;15.70;99.90
25138;DHT22;13112;50.986;4.354;2022-10-17T00:37:31;15.50;99.90
25138;DHT22;13112;50.986;4.354;2022-10-17T00:39:58;15.40;99.90
25138;DHT22;13112;50.986;4.354;2022-10-17T00:42:25;15.40;99.90
25138;DHT22;13112;50.986;4.354;2022-10-17T00:45:19;15.40;99.90
25138;DHT22;13112;50.986;4.354;2022-10-17T00:47:49;15.50;99.90
25138;DHT22;13112;50.986;4.354;2022-10-17T00:50:17;15.50;99.90
25138;DHT22;13112;50.986;4.354;2022-10-17T00:52:43;15.50;99.90
25138;DHT22;13112;50.986;4.354;2022-10-17T00:55:23;15.60;99.90
25138;DHT22;13112;50.986;4.354;2022-10-17T00:57:50;15.70;99.90
25138;DHT22;13112;50.986;4.354;2022-10-17T01:00:16;15.70;99.90
25138;DHT22;13112;50.986;4.354;2022-10-17T01:02:42;15.80;99.90
25138;DHT22;13112;50.986;4.354;2022-10-17T01:05:09;15.80;99.90
25138;DHT22;13112;50.986;4.354;2022-10-17T01:07:36;15.70;99.90
25138;DHT22;13112;50.986;4.354;2022-10-17T01:10:03;15.60;99.90
25138;DHT22;13112;50.986;4.354;2022-10-17T01:12:40;15.50;99.90
25138;DHT22;13112;50.986;4.354;2022-10-17T01:15:28;15.60;99.90
25138;DHT22;13112;50.986;4.354;2022-10-17T01:18:09;15.50;99.90
25138;DHT22;13112;50.986;4.354;2022-10-17T01:32:11;15.90;99.90
25138;DHT22;13112;50.986;4.354;2022-10-17T01:37:33;15.80;99.90
25138;DHT22;13112;50.986;4.354;2022-10-17T01:40:21;15.80;99.90
25138;DHT22;13112;50.986;4.354;2022-10-17T01:45:24;15.80;99.90
25138;DHT22;13112;50.986;4.354;2022-10-17T01:47:53;15.80;99.90
25138;DHT22;13112;50.986;4.354;2022-10-17T01:50:34;15.80;99.90
25138;DHT22;13112;50.986;4.354;2022-10-17T01:53:06;15.80;99.90
25138;DHT22;13112;50.986;4.354;2022-10-17T01:55:36;15.80;99.90
25138;DHT22;13112;50.986;4.354;2022-10-17T01:58:14;15.90;99.90
25138;DHT22;13112;50.986;4.354;2022-10-17T02:00:42;16.00;99.90
25138;DHT22;13112;50.986;4.354;2022-10-17T02:03:13;16.00;99.90
25138;DHT22;13112;50.986;4.354;2022-10-17T02:05:42;16.10;99.90
25138;DHT22;13112;50.986;4.354;2022-10-17T02:08:08;16.20;99.90
25138;DHT22;13112;50.986;4.354;2022-10-17T02:10:45;16.30;99.90
25138;DHT22;13112;50.986;4.354;2022-10-17T02:13:37;16.40;99.90
25138;DHT22;13112;50.986;4.354;2022-10-17T02:18:58;16.60;99.90
25138;DHT22;13112;50.986;4.354;2022-10-17T02:24:19;16.70;99.90
25138;DHT22;13112;50.986;4.354;2022-10-17T02:27:02;16.70;99.90
25138;DHT22;13112;50.986;4.354;2022-10-17T02:29:33;16.70;99.90
25138;DHT22;13112;50.986;4.354;2022-10-17T02:32:07;16.80;99.90
25138;DHT22;13112;50.986;4.354;2022-10-17T02:34:41;16.80;99.90
25138;DHT22;13112;50.986;4.354;2022-10-17T02:37:10;16.80;99.90
25138;DHT22;13112;50.986;4.354;2022-10-17T02:39:39;16.90;99.90
25138;DHT22;13112;50.986;4.354;2022-10-17T02:42:08;16.90;99.90
25138;DHT22;13112;50.986;4.354;2022-10-17T02:44:37;17.00;99.90
25138;DHT22;13112;50.986;4.354;2022-10-17T02:49:50;17.10;99.90
25138;DHT22;13112;50.986;4.354;2022-10-17T02:52:44;17.10;99.90
25138;DHT22;13112;50.986;4.354;2022-10-17T02:55:19;17.20;99.90
25138;DHT22;13112;50.986;4.354;2022-10-17T02:57:50;17.20;99.90
25138;DHT22;13112;50.986;4.354;2022-10-17T03:00:18;17.20;99.90
25138;DHT22;13112;50.986;4.354;2022-10-17T03:02:52;17.20;99.90
25138;DHT22;13112;50.986;4.354;2022-10-17T03:05:26;17.30;99.90
25138;DHT22;13112;50.986;4.354;2022-10-17T03:07:53;17.40;99.90
25138;DHT22;13112;50.986;4.354;2022-10-17T03:10:19;17.40;99.90
25138;DHT22;13112;50.986;4.354;2022-10-17T03:12:45;17.40;99.90
25138;DHT22;13112;50.986;4.354;2022-10-17T03:15:11;17.40;99.90
25138;DHT22;13112;50.986;4.354;2022-10-17T03:17:37;17.60;99.90
25138;DHT22;13112;50.986;4.354;2022-10-17T03:20:04;17.70;99.90
25138;DHT22;13112;50.986;4.354;2022-10-17T03:22:31;17.70;99.90
25138;DHT22;13112;50.986;4.354;2022-10-17T03:24:57;17.80;99.90
25138;DHT22;13112;50.986;4.354;2022-10-17T03:27:23;17.90;99.90
25138;DHT22;13112;50.986;4.354;2022-10-17T03:29:49;17.90;99.90
25138;DHT22;13112;50.986;4.354;2022-10-17T03:32:14;17.90;99.90
25138;DHT22;13112;50.986;4.354;2022-10-17T03:34:40;17.90;99.90
25138;DHT22;13112;50.986;4.354;2022-10-17T03:37:06;17.90;99.90
25138;DHT22;13112;50.986;4.354;2022-10-17T03:39:31;18.00;99.90
25138;DHT22;13112;50.986;4.354;2022-10-17T03:41:57;17.90;99.90
25138;DHT22;13112;50.986;4.354;2022-10-17T03:44:23;18.00;99.90
25138;DHT22;13112;50.986;4.354;2022-10-17T03:46:48;18.00;99.90
25138;DHT22;13112;50.986;4.354;2022-10-17T03:49:14;18.00;99.90
25138;DHT22;13112;50.986;4.354;2022-10-17T03:51:39;18.10;99.90
25138;DHT22;13112;50.986;4.354;2022-10-17T03:54:05;18.10;99.90
25138;DHT22;13112;50.986;4.354;2022-10-17T03:56:31;18.10;99.90
25138;DHT22;13112;50.986;4.354;2022-10-17T03:58:56;18.10;99.90
25138;DHT22;13112;50.986;4.354;2022-10-17T04:01:22;18.10;99.90
25138;DHT22;13112;50.986;4.354;2022-10-17T04:03:53;18.10;99.90
25138;DHT22;13112;50.986;4.354;2022-10-17T04:06:19;18.10;99.90
25138;DHT22;13112;50.986;4.354;2022-10-17T04:08:45;18.10;99.90
25138;DHT22;13112;50.986;4.354;2022-10-17T04:11:17;18.10;99.90
25138;DHT22;13112;50.986;4.354;2022-10-17T04:13:44;18.10;99.90
25138;DHT22;13112;50.986;4.354;2022-10-17T04:16:15;18.00;99.90
25138;DHT22;13112;50.986;4.354;2022-10-17T04:18:41;18.00;99.90
25138;DHT22;13112;50.986;4.354;2022-10-17T04:21:07;18.00;99.90
25138;DHT22;13112;50.986;4.354;2022-10-17T04:23:33;17.90;99.90
25138;DHT22;13112;50.986;4.354;2022-10-17T04:26:00;17.90;99.90
25138;DHT22;13112;50.986;4.354;2022-10-17T04:28:26;18.00;99.90
25138;DHT22;13112;50.986;4.354;2022-10-17T04:31:07;18.00;99.90
25138;DHT22;13112;50.986;4.354;2022-10-17T04:33:34;17.90;99.90
25138;DHT22;13112;50.986;4.354;2022-10-17T04:36:01;17.90;99.90
25138;DHT22;13112;50.986;4.354;2022-10-17T04:38:28;17.80;99.90
25138;DHT22;13112;50.986;4.354;2022-10-17T04:40:59;17.80;99.90
25138;DHT22;13112;50.986;4.354;2022-10-17T04:43:35;17.90;99.90
25138;DHT22;13112;50.986;4.354;2022-10-17T04:46:06;17.90;99.90
25138;DHT22;13112;50.986;4.354;2022-10-17T04:48:32;17.90;99.90
25138;DHT22;13112;50.986;4.354;2022-10-17T04:51:03;17.90;99.90
25138;DHT22;13112;50.986;4.354;2022-10-17T04:53:34;17.90;99.90
25138;DHT22;13112;50.986;4.354;2022-10-17T04:56:00;17.90;99.90
25138;DHT22;13112;50.986;4.354;2022-10-17T04:58:27;17.80;99.90
25138;DHT22;13112;50.986;4.354;2022-10-17T05:00:54;17.80;99.90
25138;DHT22;13112;50.986;4.354;2022-10-17T05:03:19;17.80;99.90
25138;DHT22;13112;50.986;4.354;2022-10-17T05:05:45;17.80;99.90
25138;DHT22;13112;50.986;4.354;2022-10-17T05:08:11;17.80;99.90
25138;DHT22;13112;50.986;4.354;2022-10-17T05:10:38;17.80;99.90
25138;DHT22;13112;50.986;4.354;2022-10-17T05:13:04;17.70;99.90
25138;DHT22;13112;50.986;4.354;2022-10-17T05:15:30;17.70;99.90
25138;DHT22;13112;50.986;4.354;2022-10-17T05:17:56;17.70;99.90
25138;DHT22;13112;50.986;4.354;2022-10-17T05:20:22;17.70;99.90
25138;DHT22;13112;50.986;4.354;2022-10-17T05:22:48;17.60;99.90
25138;DHT22;13112;50.986;4.354;2022-10-17T05:25:13;17.50;99.90
25138;DHT22;13112;50.986;4.354;2022-10-17T05:27:39;17.50;99.90
25138;DHT22;13112;50.986;4.354;2022-10-17T05:30:05;17.50;99.90
25138;DHT22;13112;50.986;4.354;2022-10-17T05:32:31;17.40;99.90
25138;DHT22;13112;50.986;4.354;2022-10-17T05:34:57;17.50;99.90
25138;DHT22;13112;50.986;4.354;2022-10-17T05:37:22;17.50;99.90
25138;DHT22;13112;50.986;4.354;2022-10-17T05:39:48;17.50;99.90
25138;DHT22;13112;50.986;4.354;2022-10-17T05:42:14;17.50;99.90
25138;DHT22;13112;50.986;4.354;2022-10-17T05:44:39;17.50;99.90
25138;DHT22;13112;50.986;4.354;2022-10-17T05:47:06;17.60;99.90
25138;DHT22;13112;50.986;4.354;2022-10-17T05:49:33;17.60;99.90
25138;DHT22;13112;50.986;4.354;2022-10-17T05:51:58;17.70;99.90
25138;DHT22;13112;50.986;4.354;2022-10-17T05:54:24;17.60;99.90
25138;DHT22;13112;50.986;4.354;2022-10-17T05:56:54;17.60;99.90
25138;DHT22;13112;50.986;4.354;2022-10-17T05:59:20;17.60;99.90
25138;DHT22;13112;50.986;4.354;2022-10-17T06:01:46;17.60;99.90
25138;DHT22;13112;50.986;4.354;2022-10-17T06:04:11;17.70;99.90
25138;DHT22;13112;50.986;4.354;2022-10-17T06:06:38;17.70;99.90
25138;DHT22;13112;50.986;4.354;2022-10-17T06:09:04;17.80;99.90
25138;DHT22;13112;50.986;4.354;2022-10-17T06:11:30;17.70;99.90
25138;DHT22;13112;50.986;4.354;2022-10-17T06:13:56;17.70;99.90
25138;DHT22;13112;50.986;4.354;2022-10-17T06:16:22;17.70;99.90
25138;DHT22;13112;50.986;4.354;2022-10-17T06:18:48;17.60;99.90
25138;DHT22;13112;50.986;4.354;2022-10-17T06:21:16;17.70;99.90
25138;DHT22;13112;50.986;4.354;2022-10-17T06:23:42;17.60;99.90
25138;DHT22;13112;50.986;4.354;2022-10-17T06:26:08;17.60;99.90
25138;DHT22;13112;50.986;4.354;2022-10-17T06:28:35;17.60;99.90
25138;DHT22;13112;50.986;4.354;2022-10-17T06:31:11;17.60;99.90
25138;DHT22;13112;50.986;4.354;2022-10-17T06:33:37;17.50;99.90
25138;DHT22;13112;50.986;4.354;2022-10-17T06:36:04;17.40;99.90
25138;DHT22;13112;50.986;4.354;2022-10-17T06:38:30;17.30;99.90
25138;DHT22;13112;50.986;4.354;2022-10-17T06:41:08;17.30;99.90
25138;DHT22;13112;50.986;4.354;2022-10-17T06:43:35;17.30;99.90
25138;DHT22;13112;50.986;4.354;2022-10-17T06:46:02;17.30;99.90
25138;DHT22;13112;50.986;4.354;2022-10-17T06:48:27;17.30;99.90
25138;DHT22;13112;50.986;4.354;2022-10-17T06:50:57;17.40;99.90
25138;DHT22;13112;50.986;4.354;2022-10-17T06:53:22;17.50;99.90
25138;DHT22;13112;50.986;4.354;2022-10-17T06:55:52;17.40;99.90
25138;DHT22;13112;50.986;4.354;2022-10-17T06:58:26;17.40;99.90
25138;DHT22;13112;50.986;4.354;2022-10-17T07:01:01;17.40;99.90
25138;DHT22;13112;50.986;4.354;2022-10-17T07:03:28;17.40;99.90
25138;DHT22;13112;50.986;4.354;2022-10-17T07:05:55;17.50;99.90
25138;DHT22;13112;50.986;4.354;2022-10-17T07:08:21;17.50;99.90
25138;DHT22;13112;50.986;4.354;2022-10-17T07:10:46;17.40;99.90
25138;DHT22;13112;50.986;4.354;2022-10-17T07:13:12;17.40;99.90
25138;DHT22;13112;50.986;4.354;2022-10-17T07:15:38;17.40;99.90
25138;DHT22;13112;50.986;4.354;2022-10-17T07:18:04;17.40;99.90
25138;DHT22;13112;50.986;4.354;2022-10-17T07:20:30;17.40;99.90
25138;DHT22;13112;50.986;4.354;2022-10-17T07:22:56;17.30;99.90
25138;DHT22;13112;50.986;4.354;2022-10-17T07:25:22;17.30;99.90
25138;DHT22;13112;50.986;4.354;2022-10-17T07:27:51;17.30;99.90
25138;DHT22;13112;50.986;4.354;2022-10-17T07:30:18;17.30;99.90
25138;DHT22;13112;50.986;4.354;2022-10-17T07:32:44;17.20;99.90
25138;DHT22;13112;50.986;4.354;2022-10-17T07:35:11;17.20;99.90
25138;DHT22;13112;50.986;4.354;2022-10-17T07:37:37;17.20;99.90
25138;DHT22;13112;50.986;4.354;2022-10-17T07:40:05;17.30;99.90
25138;DHT22;13112;50.986;4.354;2022-10-17T07:42:31;17.30;99.90
25138;DHT22;13112;50.986;4.354;2022-10-17T07:44:57;17.20;99.90
25138;DHT22;13112;50.986;4.354;2022-10-17T07:47:23;17.20;99.90
25138;DHT22;13112;50.986;4.354;2022-10-17T07:49:48;17.00;99.90
25138;DHT22;13112;50.986;4.354;2022-10-17T07:52:15;17.00;99.90
25138;DHT22;13112;50.986;4.354;2022-10-17T07:54:41;16.90;99.90
25138;DHT22;13112;50.986;4.354;2022-10-17T07:57:08;17.10;99.90
25138;DHT22;13112;50.986;4.354;2022-10-17T07:59:35;17.10;99.90
25138;DHT22;13112;50.986;4.354;2022-10-17T08:02:02;17.00;99.90
25138;DHT22;13112;50.986;4.354;2022-10-17T08:04:28;16.90;99.90
25138;DHT22;13112;50.986;4.354;2022-10-17T08:06:53;16.90;99.90
25138;DHT22;13112;50.986;4.354;2022-10-17T08:09:19;16.90;99.90
25138;DHT22;13112;50.986;4.354;2022-10-17T08:11:45;16.80;99.90
25138;DHT22;13112;50.986;4.354;2022-10-17T08:14:12;16.70;99.90
25138;DHT22;13112;50.986;4.354;2022-10-17T08:16:39;16.60;99.90
25138;DHT22;13112;50.986;4.354;2022-10-17T08:19:05;16.70;99.90
25138;DHT22;13112;50.986;4.354;2022-10-17T08:21:33;16.70;99.90
25138;DHT22;13112;50.986;4.354;2022-10-17T08:23:59;16.90;99.90
25138;DHT22;13112;50.986;4.354;2022-10-17T08:26:27;16.90;99.90
25138;DHT22;13112;50.986;4.354;2022-10-17T08:28:53;16.80;99.90
25138;DHT22;13112;50.986;4.354;2022-10-17T08:31:19;16.70;99.90
25138;DHT22;13112;50.986;4.354;2022-10-17T08:33:46;16.60;99.90
25138;DHT22;13112;50.986;4.354;2022-10-17T08:36:14;16.70;99.90
25138;DHT22;13112;50.986;4.354;2022-10-17T08:38:40;16.50;99.90
25138;DHT22;13112;50.986;4.354;2022-10-17T08:46:38;16.50;99.90
25138;DHT22;13112;50.986;4.354;2022-10-17T08:49:11;16.60;99.90
25138;DHT22;13112;50.986;4.354;2022-10-17T08:51:48;16.60;99.90
25138;DHT22;13112;50.986;4.354;2022-10-17T08:54:19;16.80;99.90
25138;DHT22;13112;50.986;4.354;2022-10-17T08:56:51;16.90;99.90
25138;DHT22;13112;50.986;4.354;2022-10-17T08:59:28;16.70;99.90
25138;DHT22;13112;50.986;4.354;2022-10-17T09:13:34;16.90;99.90
25138;DHT22;13112;50.986;4.354;2022-10-17T09:22:08;17.30;99.90
25138;DHT22;13112;50.986;4.354;2022-10-17T09:24:55;17.60;99.90
25138;DHT22;13112;50.986;4.354;2022-10-17T09:29:54;18.00;99.90
25138;DHT22;13112;50.986;4.354;2022-10-17T09:32:25;18.00;99.90
25138;DHT22;13112;50.986;4.354;2022-10-17T09:34:52;18.10;99.90
25138;DHT22;13112;50.986;4.354;2022-10-17T09:37:18;18.00;99.90
25138;DHT22;13112;50.986;4.354;2022-10-17T09:39:47;18.00;99.90
25138;DHT22;13112;50.986;4.354;2022-10-17T09:42:15;18.10;99.90
25138;DHT22;13112;50.986;4.354;2022-10-17T09:47:41;18.20;99.90
25138;DHT22;13112;50.986;4.354;2022-10-17T09:50:34;18.20;99.90
25138;DHT22;13112;50.986;4.354;2022-10-17T09:53:04;18.30;99.90
25138;DHT22;13112;50.986;4.354;2022-10-17T09:55:40;18.40;99.90
25138;DHT22;13112;50.986;4.354;2022-10-17T09:58:08;18.10;99.90
25138;DHT22;13112;50.986;4.354;2022-10-17T10:00:39;18.00;99.90
25138;DHT22;13112;50.986;4.354;2022-10-17T10:03:10;18.00;99.90
25138;DHT22;13112;50.986;4.354;2022-10-17T10:05:37;17.90;99.90
25138;DHT22;13112;50.986;4.354;2022-10-17T10:08:12;17.90;99.90
25138;DHT22;13112;50.986;4.354;2022-10-17T10:10:38;18.10;99.90
25138;DHT22;13112;50.986;4.354;2022-10-17T10:15:45;18.00;99.90
25138;DHT22;13112;50.986;4.354;2022-10-17T10:18:33;18.00;99.90
25138;DHT22;13112;50.986;4.354;2022-10-17T10:21:10;18.00;99.90
25138;DHT22;13112;50.986;4.354;2022-10-17T10:23:38;18.10;99.90
25138;DHT22;13112;50.986;4.354;2022-10-17T10:26:21;18.10;99.90
25138;DHT22;13112;50.986;4.354;2022-10-17T10:28:58;18.10;99.90
25138;DHT22;13112;50.986;4.354;2022-10-17T10:31:29;18.20;99.90
25138;DHT22;13112;50.986;4.354;2022-10-17T10:33:55;18.20;99.90
25138;DHT22;13112;50.986;4.354;2022-10-17T10:36:22;18.30;99.90
25138;DHT22;13112;50.986;4.354;2022-10-17T10:38:57;18.40;99.90
25138;DHT22;13112;50.986;4.354;2022-10-17T10:41:24;18.50;99.90
25138;DHT22;13112;50.986;4.354;2022-10-17T10:43:53;18.60;99.90
25138;DHT22;13112;50.986;4.354;2022-10-17T10:46:27;18.60;99.90
25138;DHT22;13112;50.986;4.354;2022-10-17T10:48:55;18.60;99.90
25138;DHT22;13112;50.986;4.354;2022-10-17T10:51:49;18.70;99.90
25138;DHT22;13112;50.986;4.354;2022-10-17T10:54:16;18.60;99.90
25138;DHT22;13112;50.986;4.354;2022-10-17T10:56:52;18.70;99.90
25138;DHT22;13112;50.986;4.354;2022-10-17T10:59:42;18.60;99.90
25138;DHT22;13112;50.986;4.354;2022-10-17T11:05:39;18.80;99.90
25138;DHT22;13112;50.986;4.354;2022-10-17T11:11:16;19.10;99.90
25138;DHT22;13112;50.986;4.354;2022-10-17T11:14:12;19.10;99.90
25138;DHT22;13112;50.986;4.354;2022-10-17T11:17:11;19.50;99.90
25138;DHT22;13112;50.986;4.354;2022-10-17T11:19:49;19.50;99.90
25138;DHT22;13112;50.986;4.354;2022-10-17T11:22:22;19.50;99.90
25138;DHT22;13112;50.986;4.354;2022-10-17T11:24:58;19.40;99.90
25138;DHT22;13112;50.986;4.354;2022-10-17T11:27:27;19.00;99.90
25138;DHT22;13112;50.986;4.354;2022-10-17T11:29:54;18.90;99.90
25138;DHT22;13112;50.986;4.354;2022-10-17T11:32:27;18.90;99.90
25138;DHT22;13112;50.986;4.354;2022-10-17T11:35:07;18.90;99.90
25138;DHT22;13112;50.986;4.354;2022-10-17T11:37:40;19.10;99.90
25138;DHT22;13112;50.986;4.354;2022-10-17T11:40:28;19.10;99.90
25138;DHT22;13112;50.986;4.354;2022-10-17T11:43:13;19.10;99.90
25138;DHT22;13112;50.986;4.354;2022-10-17T11:45:45;19.30;99.90
25138;DHT22;13112;50.986;4.354;2022-10-17T11:48:19;19.50;99.90
25138;DHT22;13112;50.986;4.354;2022-10-17T11:51:13;19.40;99.90
25138;DHT22;13112;50.986;4.354;2022-10-17T11:54:12;19.20;99.90
25138;DHT22;13112;50.986;4.354;2022-10-17T11:56:51;19.00;99.90
25138;DHT22;13112;50.986;4.354;2022-10-17T12:07:49;19.20;99.90
25138;DHT22;13112;50.986;4.354;2022-10-17T12:10:32;19.40;99.90
25138;DHT22;13112;50.986;4.354;2022-10-17T12:15:56;19.40;99.90
25138;DHT22;13112;50.986;4.354;2022-10-17T12:18:24;19.30;99.90
25138;DHT22;13112;50.986;4.354;2022-10-17T12:20:58;19.10;99.90
25138;DHT22;13112;50.986;4.354;2022-10-17T12:23:29;19.30;99.90
25138;DHT22;13112;50.986;4.354;2022-10-17T12:25:58;19.30;99.90
25138;DHT22;13112;50.986;4.354;2022-10-17T12:28:45;19.10;99.90
25138;DHT22;13112;50.986;4.354;2022-10-17T12:33:59;18.90;99.90
25138;DHT22;13112;50.986;4.354;2022-10-17T12:46:49;19.10;99.90
25138;DHT22;13112;50.986;4.354;2022-10-17T12:49:19;19.20;99.90
25138;DHT22;13112;50.986;4.354;2022-10-17T12:54:39;19.10;99.90
25138;DHT22;13112;50.986;4.354;2022-10-17T12:57:19;19.10;99.90
25138;DHT22;13112;50.986;4.354;2022-10-17T12:59:46;19.00;99.90
25138;DHT22;13112;50.986;4.354;2022-10-17T13:02:20;19.00;99.90
25138;DHT22;13112;50.986;4.354;2022-10-17T13:04:49;19.00;99.90
25138;DHT22;13112;50.986;4.354;2022-10-17T13:07:20;19.00;99.90
25138;DHT22;13112;50.986;4.354;2022-10-17T13:09:47;19.20;99.90
25138;DHT22;13112;50.986;4.354;2022-10-17T13:12:24;19.10;99.90
25138;DHT22;13112;50.986;4.354;2022-10-17T13:14:52;19.00;99.90
25138;DHT22;13112;50.986;4.354;2022-10-17T13:17:27;19.00;99.90
25138;DHT22;13112;50.986;4.354;2022-10-17T13:19:54;19.10;99.90
25138;DHT22;13112;50.986;4.354;2022-10-17T13:22:29;19.30;99.90
25138;DHT22;13112;50.986;4.354;2022-10-17T13:25:08;19.60;99.90
25138;DHT22;13112;50.986;4.354;2022-10-17T13:27:35;19.80;99.90
25138;DHT22;13112;50.986;4.354;2022-10-17T13:32:45;20.50;99.90
25138;DHT22;13112;50.986;4.354;2022-10-17T13:35:13;20.70;99.90
25138;DHT22;13112;50.986;4.354;2022-10-17T13:37:44;20.90;99.90
25138;DHT22;13112;50.986;4.354;2022-10-17T13:40:18;21.10;99.90
25138;DHT22;13112;50.986;4.354;2022-10-17T13:42:45;20.70;99.90
25138;DHT22;13112;50.986;4.354;2022-10-17T13:45:33;20.80;99.90
25138;DHT22;13112;50.986;4.354;2022-10-17T13:48:07;20.60;99.90
25138;DHT22;13112;50.986;4.354;2022-10-17T13:50:42;20.70;99.90
25138;DHT22;13112;50.986;4.354;2022-10-17T13:53:29;20.80;99.90
25138;DHT22;13112;50.986;4.354;2022-10-17T13:56:03;20.70;99.90
25138;DHT22;13112;50.986;4.354;2022-10-17T13:58:38;20.60;99.90
25138;DHT22;13112;50.986;4.354;2022-10-17T14:01:05;20.30;99.90
25138;DHT22;13112;50.986;4.354;2022-10-17T14:03:31;20.40;99.90
25138;DHT22;13112;50.986;4.354;2022-10-17T14:06:02;20.30;99.90
25138;DHT22;13112;50.986;4.354;2022-10-17T14:08:30;20.10;99.90
25138;DHT22;13112;50.986;4.354;2022-10-17T14:10:56;20.20;99.90
25138;DHT22;13112;50.986;4.354;2022-10-17T14:13:28;20.40;99.90
25138;DHT22;13112;50.986;4.354;2022-10-17T14:16:00;20.60;99.90
25138;DHT22;13112;50.986;4.354;2022-10-17T14:18:31;20.80;99.90
25138;DHT22;13112;50.986;4.354;2022-10-17T14:20:59;20.90;99.90
25138;DHT22;13112;50.986;4.354;2022-10-17T14:23:38;20.80;99.90
25138;DHT22;13112;50.986;4.354;2022-10-17T14:26:18;20.70;99.90
25138;DHT22;13112;50.986;4.354;2022-10-17T14:28:50;20.70;99.90
25138;DHT22;13112;50.986;4.354;2022-10-17T14:31:32;20.70;99.90
25138;DHT22;13112;50.986;4.354;2022-10-17T14:34:00;20.70;99.90
25138;DHT22;13112;50.986;4.354;2022-10-17T14:36:33;20.50;99.90
25138;DHT22;13112;50.986;4.354;2022-10-17T14:38:59;20.60;99.90
25138;DHT22;13112;50.986;4.354;2022-10-17T14:41:34;20.50;99.90
25138;DHT22;13112;50.986;4.354;2022-10-17T14:44:04;20.70;99.90
25138;DHT22;13112;50.986;4.354;2022-10-17T14:46:31;20.70;99.90
25138;DHT22;13112;50.986;4.354;2022-10-17T14:49:05;20.60;99.90
25138;DHT22;13112;50.986;4.354;2022-10-17T14:51:30;20.20;99.90
25138;DHT22;13112;50.986;4.354;2022-10-17T14:56:49;20.00;99.90
25138;DHT22;13112;50.986;4.354;2022-10-17T14:59:16;20.00;99.90
25138;DHT22;13112;50.986;4.354;2022-10-17T15:01:47;20.00;99.90
25138;DHT22;13112;50.986;4.354;2022-10-17T15:04:13;20.00;99.90
25138;DHT22;13112;50.986;4.354;2022-10-17T15:06:39;19.90;99.90
25138;DHT22;13112;50.986;4.354;2022-10-17T15:09:05;19.90;99.90
25138;DHT22;13112;50.986;4.354;2022-10-17T15:11:31;19.90;99.90
25138;DHT22;13112;50.986;4.354;2022-10-17T15:13:56;19.80;99.90
25138;DHT22;13112;50.986;4.354;2022-10-17T15:16:30;19.90;99.90
25138;DHT22;13112;50.986;4.354;2022-10-17T15:18:56;19.80;99.90
25138;DHT22;13112;50.986;4.354;2022-10-17T15:21:23;19.80;99.90
25138;DHT22;13112;50.986;4.354;2022-10-17T15:23:50;19.80;99.90
25138;DHT22;13112;50.986;4.354;2022-10-17T15:26:23;19.70;99.90
25138;DHT22;13112;50.986;4.354;2022-10-17T15:28:49;19.60;99.90
25138;DHT22;13112;50.986;4.354;2022-10-17T15:31:18;19.40;99.90
25138;DHT22;13112;50.986;4.354;2022-10-17T15:33:44;19.40;99.90
25138;DHT22;13112;50.986;4.354;2022-10-17T15:36:32;19.50;99.90
25138;DHT22;13112;50.986;4.354;2022-10-17T15:39:00;19.70;99.90
25138;DHT22;13112;50.986;4.354;2022-10-17T15:41:27;19.80;99.90
25138;DHT22;13112;50.986;4.354;2022-10-17T15:43:54;19.80;99.90
25138;DHT22;13112;50.986;4.354;2022-10-17T15:46:28;19.90;99.90
25138;DHT22;13112;50.986;4.354;2022-10-17T15:48:55;19.90;99.90
25138;DHT22;13112;50.986;4.354;2022-10-17T15:51:21;19.80;99.90
25138;DHT22;13112;50.986;4.354;2022-10-17T15:53:47;19.80;99.90
25138;DHT22;13112;50.986;4.354;2022-10-17T15:56:28;19.60;99.90
25138;DHT22;13112;50.986;4.354;2022-10-17T15:58:55;19.60;99.90
25138;DHT22;13112;50.986;4.354;2022-10-17T16:01:27;19.40;99.90
25138;DHT22;13112;50.986;4.354;2022-10-17T16:03:54;19.50;99.90
25138;DHT22;13112;50.986;4.354;2022-10-17T16:06:21;19.30;99.90
25138;DHT22;13112;50.986;4.354;2022-10-17T16:08:47;19.40;99.90
25138;DHT22;13112;50.986;4.354;2022-10-17T16:11:21;19.10;99.90
25138;DHT22;13112;50.986;4.354;2022-10-17T16:13:51;19.10;99.90
25138;DHT22;13112;50.986;4.354;2022-10-17T16:16:17;19.10;99.90
25138;DHT22;13112;50.986;4.354;2022-10-17T16:18:43;19.20;99.90
25138;DHT22;13112;50.986;4.354;2022-10-17T16:21:12;19.10;99.90
25138;DHT22;13112;50.986;4.354;2022-10-17T16:23:39;18.90;99.90
25138;DHT22;13112;50.986;4.354;2022-10-17T16:26:06;18.80;99.90
25138;DHT22;13112;50.986;4.354;2022-10-17T16:28:32;18.80;99.90
25138;DHT22;13112;50.986;4.354;2022-10-17T16:30:58;18.80;99.90
25138;DHT22;13112;50.986;4.354;2022-10-17T16:33:23;18.60;99.90
25138;DHT22;13112;50.986;4.354;2022-10-17T16:35:49;18.50;99.90
25138;DHT22;13112;50.986;4.354;2022-10-17T16:38:15;18.40;99.90
25138;DHT22;13112;50.986;4.354;2022-10-17T16:40:40;18.40;99.90
25138;DHT22;13112;50.986;4.354;2022-10-17T16:43:09;18.40;99.90
25138;DHT22;13112;50.986;4.354;2022-10-17T16:45:36;18.40;99.90
25138;DHT22;13112;50.986;4.354;2022-10-17T16:48:02;18.30;99.90
25138;DHT22;13112;50.986;4.354;2022-10-17T16:50:27;18.20;99.90
25138;DHT22;13112;50.986;4.354;2022-10-17T16:52:55;18.20;99.90
25138;DHT22;13112;50.986;4.354;2022-10-17T16:55:21;18.10;99.90
25138;DHT22;13112;50.986;4.354;2022-10-17T16:57:46;17.90;99.90
25138;DHT22;13112;50.986;4.354;2022-10-17T17:00:13;17.70;99.90
25138;DHT22;13112;50.986;4.354;2022-10-17T17:02:39;17.50;99.90
25138;DHT22;13112;50.986;4.354;2022-10-17T17:05:05;17.40;99.90
25138;DHT22;13112;50.986;4.354;2022-10-17T17:07:31;17.30;99.90
25138;DHT22;13112;50.986;4.354;2022-10-17T17:09:57;17.20;99.90
25138;DHT22;13112;50.986;4.354;2022-10-17T17:12:23;17.30;99.90
25138;DHT22;13112;50.986;4.354;2022-10-17T17:14:50;17.30;99.90
25138;DHT22;13112;50.986;4.354;2022-10-17T17:17:15;17.30;99.90
25138;DHT22;13112;50.986;4.354;2022-10-17T17:19:41;17.40;99.90
25138;DHT22;13112;50.986;4.354;2022-10-17T17:22:07;17.50;99.90